メインページ
METAR-TAF:

METAR-TAF

空港 :

ベイルート, レバノン

緯度: 33-49N, 経度: 035-29E, 海抜: 29m

現時点の気象観測

当レポートは18分前の10:00(UTC)に作成
西の風 7kt
気温 27°C
湿度 62%
気圧 1017 hPa
視程: 8000m
高度2600ftの雲は散在している

METAR: OLBA 211000Z 26007KT 8000 SCT026 27/19 Q1017 NOSIG

時間: 13:18 (10:18 UTC)

予報

当レポートは6時間18分前の04:00(UTC)に作成
予報は21日の 06時(UTC)から 22日の 12時(UTC)まで有効
西/南西の風 14kt
視程: 8000m
高度3000ftの雲は散在している
21日の 20時(UTC)から 21日の 23時(UTC)まで徐々に
南/南東の風 5kt
22日の 06時(UTC)から 22日の 08時(UTC)まで徐々に
西/南西の風 13kt

TAF: OLBA 210400Z 2106/2212 25014KT 8000 SCT030 BECMG 2120/2123 15005KT BECMG 2206/2208 24013KT

4,000以上の空港の気象観測と天気予報(METAR報とTAF報)

利用可能な観測所は地図上に黄色い丸と赤い丸で示す。

丸の上にカーソルを重ねると観測所名を参照できる。

次にクリックすると気象観測と天気予報を参照できる。

マップの切り替え:黒色「×」印の緑ボタンをクリックして拡大、「-」印の緑ボタンをクリックして縮小、緑色の三角印をクリックして隣りの地図に切り替え


METAR-TAF: